Aviation Digital Data Service (ADDS)

Output produced by METARs form (0129 UTC 19 October 2017)
found at http://aviationweather.gov/adds/metars/
 
KAGC 182320Z 1900/1924 19003KT P6SM SKC 
     FM191600 23008G16KT P6SM SKC